Time;durP1;ratioP1;P1;durP2;ratioP2;P2;SDS_P1;SDS_P2;PMS_P1;PMS_P2;Temp;Humidity;BMP_temperature;BMP_pressure;BME280_temperature;BME280_humidity;BME280_pressure;Samples;Min_cycle;Max_cycle;Signal;HPM_P1;HPM_P2
2024/02/15 00:02:09;;;;;;;;;;;;;;;24.46;37.67;101414.84;4233247;28;19920;-78
2024/02/15 00:04:33;;;;;;;;;;;;;;;24.44;37.48;101417.69;4209572;28;19962;-79
2024/02/15 00:06:43;;;;;;;;;;;;;;;24.45;37.42;101414.00;4214308;28;19929;-79
2024/02/15 00:08:53;;;;;;;;;;;;;;;24.45;37.66;101411.31;4232634;28;19919;-78
2024/02/15 00:11:04;;;;;;;;;;;;;;;24.45;37.57;101414.00;4232600;28;19920;-79
2024/02/15 00:13:15;;;;;;;;;;;;;;;24.45;37.41;101416.69;4216150;28;19961;-79
2024/02/15 00:15:26;;;;;;;;;;;;;;;24.47;37.36;101411.19;4215151;28;19920;-78
2024/02/15 00:17:39;;;;;;;;;;;;;;;24.47;37.31;101411.19;4232612;28;19924;-78
2024/02/15 00:19:51;;;;;;;;;;;;;;;24.48;37.53;101404.84;4215145;28;19927;-79
2024/02/15 00:22:07;;;;;;;;;;;;;;;24.47;37.43;101406.66;4215543;28;19969;-79
2024/02/15 00:24:30;;;;;;;;;;;;;;;24.48;37.29;101402.16;4217173;28;19950;-78
2024/02/15 00:26:45;;;;;;;;;;;;;;;24.49;37.53;101404.69;4232394;28;20430;-79
2024/02/15 00:28:58;;;;;;;;;;;;;;;24.49;37.23;101399.31;4216065;28;20381;-79
2024/02/15 00:31:11;;;;;;;;;;;;;;;24.48;37.28;101400.28;4232551;28;19920;-78
2024/02/15 00:33:22;;;;;;;;;;;;;;;24.50;37.57;101392.97;4231841;28;19920;-78
2024/02/15 00:35:31;;;;;;;;;;;;;;;24.50;37.28;101386.75;4197796;28;19970;-78
2024/02/15 00:37:43;;;;;;;;;;;;;;;24.50;37.45;101386.75;4232588;28;19927;-78
2024/02/15 00:39:54;;;;;;;;;;;;;;;24.50;37.30;101378.69;4214021;28;19920;-78
2024/02/15 00:42:05;;;;;;;;;;;;;;;24.50;37.54;101381.38;4232477;28;19986;-78
2024/02/15 00:44:15;;;;;;;;;;;;;;;24.49;37.18;101375.13;4214972;28;20012;-78
2024/02/15 00:46:29;;;;;;;;;;;;;;;24.51;37.40;101372.28;4232118;28;19926;-79
2024/02/15 00:48:44;;;;;;;;;;;;;;;24.50;37.46;101367.91;4231302;28;19963;-78
2024/02/15 00:50:55;;;;;;;;;;;;;;;24.51;37.21;101372.28;4214084;28;20359;-79
2024/02/15 00:53:03;;;;;;;;;;;;;;;24.50;37.46;101376.81;4214612;28;19920;-79
2024/02/15 00:55:21;;;;;;;;;;;;;;;24.50;37.33;101368.75;4214818;28;19991;-78
2024/02/15 00:57:47;;;;;;;;;;;;;;;24.51;37.23;101366.91;4231090;28;19926;-78
2024/02/15 01:00:08;;;;;;;;;;;;;;;24.51;37.28;101367.78;4215869;28;19962;-78
2024/02/15 01:02:21;;;;;;;;;;;;;;;24.51;37.35;101362.41;4232219;28;19919;-78
2024/02/15 01:04:34;;;;;;;;;;;;;;;24.51;37.22;101358.84;4224413;28;20007;-78
2024/02/15 01:06:47;;;;;;;;;;;;;;;24.51;37.17;101358.84;4215056;28;19985;-79
2024/02/15 01:09:02;;;;;;;;;;;;;;;24.50;37.18;101355.31;4215036;28;19974;-78
2024/02/15 01:11:17;;;;;;;;;;;;;;;24.49;37.30;101350.91;4213369;28;20015;-78
2024/02/15 01:13:26;;;;;;;;;;;;;;;24.48;37.19;101351.91;4232091;28;20353;-78
2024/02/15 01:15:37;;;;;;;;;;;;;;;24.47;37.49;101350.19;4214358;28;19931;-78
2024/02/15 01:17:45;;;;;;;;;;;;;;;24.47;37.24;101341.28;4232271;28;20398;-77
2024/02/15 01:19:54;;;;;;;;;;;;;;;24.46;37.50;101343.13;4231151;28;19920;-78
2024/02/15 01:22:06;;;;;;;;;;;;;;;24.45;37.41;101349.47;4214101;28;19920;-78
2024/02/15 01:24:25;;;;;;;;;;;;;;;24.45;37.37;101345.91;4213895;28;19920;-78
2024/02/15 01:26:47;;;;;;;;;;;;;;;24.44;37.41;101350.47;4231456;28;19920;-78
2024/02/15 01:29:11;;;;;;;;;;;;;;;24.43;37.14;101348.75;4215188;28;19927;-78
2024/02/15 01:31:30;;;;;;;;;;;;;;;24.42;37.49;101346.19;4223102;28;20011;-78
2024/02/15 01:33:50;;;;;;;;;;;;;;;24.41;37.52;101350.72;4231512;28;19920;-78
2024/02/15 01:36:08;;;;;;;;;;;;;;;24.41;37.40;101348.03;4231303;28;19919;-79
2024/02/15 01:38:24;;;;;;;;;;;;;;;24.39;37.64;101348.16;4214894;28;19920;-79
2024/02/15 01:40:32;;;;;;;;;;;;;;;24.37;37.18;101346.59;4213679;28;20003;-79
2024/02/15 01:42:41;;;;;;;;;;;;;;;24.37;37.26;101341.22;4214403;28;20002;-79
2024/02/15 01:44:54;;;;;;;;;;;;;;;24.36;37.23;101344.88;4231427;28;19931;-79
2024/02/15 01:47:16;;;;;;;;;;;;;;;24.34;37.30;101339.63;4231094;28;19924;-78
2024/02/15 01:49:30;;;;;;;;;;;;;;;24.35;37.55;101337.78;4231272;28;19949;-79
2024/02/15 01:51:52;;;;;;;;;;;;;;;24.34;37.17;101347.69;4213337;28;19920;-79
2024/02/15 01:54:17;;;;;;;;;;;;;;;24.35;37.34;101345.84;4213084;28;19928;-79
2024/02/15 01:56:41;;;;;;;;;;;;;;;24.35;37.47;101340.47;4215862;28;19931;-79
2024/02/15 01:58:53;;;;;;;;;;;;;;;24.33;37.36;101346.00;4231119;28;19972;-78
2024/02/15 02:01:04;;;;;;;;;;;;;;;24.32;37.37;101338.06;4231227;28;20349;-80
2024/02/15 02:03:15;;;;;;;;;;;;;;;24.31;37.37;101339.88;4231173;28;19920;-78
2024/02/15 02:05:24;;;;;;;;;;;;;;;24.32;37.37;101338.91;4230774;28;19920;-79
2024/02/15 02:07:34;;;;;;;;;;;;;;;24.32;37.34;101332.69;4206868;28;20314;-79
2024/02/15 02:09:51;;;;;;;;;;;;;;;24.30;37.43;101334.63;4213290;28;19969;-79
2024/02/15 02:12:00;;;;;;;;;;;;;;;24.31;37.35;101328.28;4197505;28;19920;-79
2024/02/15 02:14:11;;;;;;;;;;;;;;;24.31;37.36;101326.44;4213200;28;19927;-79
2024/02/15 02:16:39;;;;;;;;;;;;;;;24.31;37.33;101322.91;4213145;28;19924;-79
2024/02/15 02:18:50;;;;;;;;;;;;;;;24.32;37.35;101321.94;4226077;28;20368;-79
2024/02/15 02:21:00;;;;;;;;;;;;;;;24.32;37.60;101319.25;4213714;28;19963;-77
2024/02/15 02:23:18;;;;;;;;;;;;;;;24.32;37.49;101320.09;4214045;28;19920;-79
2024/02/15 02:25:34;;;;;;;;;;;;;;;24.32;37.56;101319.25;4230859;28;19924;-79
2024/02/15 02:27:45;;;;;;;;;;;;;;;24.32;37.32;101309.34;4231231;28;19927;-79
2024/02/15 02:29:57;;;;;;;;;;;;;;;24.32;37.34;101309.34;4214193;28;19970;-79
2024/02/15 02:32:04;;;;;;;;;;;;;;;24.32;37.44;101306.66;4232224;28;20002;-79
2024/02/15 02:34:14;;;;;;;;;;;;;;;24.33;37.30;101302.13;4234445;28;19988;-79
2024/02/15 02:36:29;;;;;;;;;;;;;;;24.33;37.23;101294.91;4234352;28;19924;-79
2024/02/15 02:38:40;;;;;;;;;;;;;;;24.33;37.59;101291.38;4234333;28;19920;-79
2024/02/15 02:40:49;;;;;;;;;;;;;;;24.32;37.50;101295.06;4234566;28;19920;-79
2024/02/15 02:43:11;;;;;;;;;;;;;;;24.32;37.59;101287.81;4234178;28;19930;-78
2024/02/15 02:45:34;;;;;;;;;;;;;;;24.34;37.43;101293.06;4234522;28;20006;-79
2024/02/15 02:47:56;;;;;;;;;;;;;;;24.33;37.29;101276.09;4234439;28;19927;-79
2024/02/15 02:50:27;;;;;;;;;;;;;;;24.33;37.21;101276.09;4219620;28;19920;-79
2024/02/15 02:53:01;;;;;;;;;;;;;;;24.33;37.60;101278.78;4220177;28;19965;-79
2024/02/15 02:55:09;;;;;;;;;;;;;;;24.34;37.18;101275.13;4235357;28;20288;-79
2024/02/15 02:57:18;;;;;;;;;;;;;;;24.35;37.58;101266.06;4216698;28;19920;-79
2024/02/15 02:59:29;;;;;;;;;;;;;;;24.36;37.21;101269.59;4217047;28;20404;-79
2024/02/15 03:01:39;;;;;;;;;;;;;;;24.35;37.24;101257.13;4216867;28;19923;-79
2024/02/15 03:03:47;;;;;;;;;;;;;;;24.35;37.55;101259.81;4215965;28;19920;-79
2024/02/15 03:05:59;;;;;;;;;;;;;;;24.35;37.15;101252.63;4200474;28;19944;-79
2024/02/15 03:08:12;;;;;;;;;;;;;;;24.36;37.20;101259.72;4234082;28;19920;-79
2024/02/15 03:10:32;;;;;;;;;;;;;;;24.36;37.15;101253.47;4234064;28;19924;-79
2024/02/15 03:12:52;;;;;;;;;;;;;;;24.35;37.16;101259.81;4217364;28;19954;-78
2024/02/15 03:15:17;;;;;;;;;;;;;;;24.35;37.21;101258.00;4233215;28;19977;-79
2024/02/15 03:17:33;;;;;;;;;;;;;;;24.35;37.09;101251.75;4233658;28;19923;-78
2024/02/15 03:19:43;;;;;;;;;;;;;;;24.35;37.29;101247.25;4215846;28;19920;-79
2024/02/15 03:21:53;;;;;;;;;;;;;;;24.35;37.10;101241.88;4216695;28;19920;-79
2024/02/15 03:24:07;;;;;;;;;;;;;;;24.36;37.22;101242.72;4215361;28;19920;-79
2024/02/15 03:26:40;;;;;;;;;;;;;;;24.36;37.26;101240.91;4216879;28;20002;-79
2024/02/15 03:29:02;;;;;;;;;;;;;;;24.36;37.13;101245.41;4233195;28;19920;-79
2024/02/15 03:31:19;;;;;;;;;;;;;;;24.36;37.13;101242.72;4233443;28;19986;-79
2024/02/15 03:33:34;;;;;;;;;;;;;;;24.35;37.35;101238.31;4217324;28;19920;-79
2024/02/15 03:35:45;;;;;;;;;;;;;;;24.36;37.42;101234.66;4233310;28;19970;-78
2024/02/15 03:38:06;;;;;;;;;;;;;;;24.35;37.36;101239.19;4233917;28;20028;-78
2024/02/15 03:40:21;;;;;;;;;;;;;;;24.35;37.31;101235.63;4233054;28;19955;-79
2024/02/15 03:42:31;;;;;;;;;;;;;;;24.35;37.11;101238.31;4215499;28;20372;-79
2024/02/15 03:44:41;;;;;;;;;;;;;;;24.35;37.05;101238.31;4216135;28;19920;-78
2024/02/15 03:46:50;;;;;;;;;;;;;;;24.36;37.21;101231.97;4233259;28;19927;-79
2024/02/15 03:48:59;;;;;;;;;;;;;;;24.35;37.00;101236.50;4233193;28;19976;-78
2024/02/15 03:51:14;;;;;;;;;;;;;;;24.35;37.17;101231.13;4215840;28;19920;-79
2024/02/15 03:53:30;;;;;;;;;;;;;;;24.36;37.33;101224.78;4233358;28;19924;-78
2024/02/15 03:55:43;;;;;;;;;;;;;;;24.36;37.25;101221.22;4233422;28;19925;-78
2024/02/15 03:58:02;;;;;;;;;;;;;;;24.36;36.94;101221.22;4216726;28;19982;-78
2024/02/15 04:00:25;;;;;;;;;;;;;;;24.36;36.90;101219.41;4216370;28;19942;-78
2024/02/15 04:02:50;;;;;;;;;;;;;;;24.35;36.93;101219.50;4232660;28;19935;-79
2024/02/15 04:05:05;;;;;;;;;;;;;;;24.35;36.96;101219.50;4233764;28;19927;-79
2024/02/15 04:07:16;;;;;;;;;;;;;;;24.35;37.07;101222.19;4232845;28;19919;-79
2024/02/15 04:09:30;;;;;;;;;;;;;;;24.33;37.29;101208.88;4214319;28;20014;-79
2024/02/15 04:11:52;;;;;;;;;;;;;;;24.33;37.16;101214.28;4216860;28;20023;-78
2024/02/15 04:14:03;;;;;;;;;;;;;;;24.33;37.26;101216.13;4233272;28;20246;-79
2024/02/15 04:16:23;;;;;;;;;;;;;;;24.32;37.22;101212.56;4217142;28;19978;-79
2024/02/15 04:18:35;;;;;;;;;;;;;;;24.33;36.97;101211.59;4225182;28;20003;-79
2024/02/15 04:20:46;;;;;;;;;;;;;;;24.34;36.91;101204.34;4232979;28;19998;-79
2024/02/15 04:22:57;;;;;;;;;;;;;;;24.34;36.87;101196.28;4232433;28;19966;-79
2024/02/15 04:25:16;;;;;;;;;;;;;;;24.35;37.00;101208.75;4214364;28;19920;-78
2024/02/15 04:27:35;;;;;;;;;;;;;;;24.33;36.83;101206.19;4215858;28;19920;-78
2024/02/15 04:29:59;;;;;;;;;;;;;;;24.33;36.88;101202.69;4214339;28;19920;-78
2024/02/15 04:32:10;;;;;;;;;;;;;;;24.32;36.91;101201.81;4232732;28;19926;-79
2024/02/15 04:34:18;;;;;;;;;;;;;;;24.33;36.81;101200.00;4215333;28;19971;-79
2024/02/15 04:36:33;;;;;;;;;;;;;;;24.32;37.20;101196.44;4232347;28;19920;-78
2024/02/15 04:38:44;;;;;;;;;;;;;;;24.32;36.80;101192.91;4232349;28;19934;-78
2024/02/15 04:40:54;;;;;;;;;;;;;;;24.30;36.84;101198.38;4215334;28;19927;-78
2024/02/15 04:43:04;;;;;;;;;;;;;;;24.31;36.88;101201.94;4232205;28;20003;-78
2024/02/15 04:45:15;;;;;;;;;;;;;;;24.31;37.14;101200.09;4214999;28;19920;-78
2024/02/15 04:47:29;;;;;;;;;;;;;;;24.31;36.82;101193.88;4198041;28;19986;-78
2024/02/15 04:49:57;;;;;;;;;;;;;;;24.31;37.06;101191.19;4214426;28;20051;-78
2024/02/15 04:52:10;;;;;;;;;;;;;;;24.31;36.84;101191.19;4215679;28;19920;-78
2024/02/15 04:54:24;;;;;;;;;;;;;;;24.31;36.84;101193.88;4213934;28;19920;-78
2024/02/15 04:56:36;;;;;;;;;;;;;;;24.31;36.92;101188.50;4199080;28;20350;-78
2024/02/15 04:58:56;;;;;;;;;;;;;;;24.30;36.81;101187.63;4231752;28;19930;-78
2024/02/15 05:01:33;;;;;;;;;;;;;;;24.31;37.08;101183.97;4218366;28;19920;-78
2024/02/15 05:03:58;;;;;;;;;;;;;;;24.29;36.87;101185.97;4216941;28;19927;-78
2024/02/15 05:06:22;;;;;;;;;;;;;;;24.30;36.87;101186.78;4216371;28;19924;-78
2024/02/15 05:08:43;;;;;;;;;;;;;;;24.30;36.78;101178.72;4216459;28;19919;-78
2024/02/15 05:11:06;;;;;;;;;;;;;;;24.29;36.75;101177.91;4231573;28;19965;-78
2024/02/15 05:13:16;;;;;;;;;;;;;;;24.28;36.90;101178.88;4214450;28;19926;-78
2024/02/15 05:15:25;;;;;;;;;;;;;;;24.29;36.75;101174.34;4232236;28;20257;-78
2024/02/15 05:17:36;;;;;;;;;;;;;;;24.29;36.78;101174.34;4231590;28;20296;-78
2024/02/15 05:19:44;;;;;;;;;;;;;;;24.28;36.77;101178.88;4231522;28;20283;-78
2024/02/15 05:21:55;;;;;;;;;;;;;;;24.30;36.88;101167.97;4213894;28;19920;-78
2024/02/15 05:24:09;;;;;;;;;;;;;;;24.31;36.78;101167.84;4231769;28;19920;-78
2024/02/15 05:26:28;;;;;;;;;;;;;;;24.29;36.83;101175.22;4215542;28;20011;-78
2024/02/15 05:28:40;;;;;;;;;;;;;;;24.31;36.96;101177.75;4197610;28;19955;-77
2024/02/15 05:31:17;;;;;;;;;;;;;;;24.30;37.11;101173.34;4198249;28;19974;-78
2024/02/15 05:33:32;;;;;;;;;;;;;;;24.30;37.00;101171.50;4231860;28;20018;-78
2024/02/15 05:35:50;;;;;;;;;;;;;;;24.30;36.71;101166.13;4231991;28;19931;-78
2024/02/15 05:38:06;;;;;;;;;;;;;;;24.31;36.80;101172.38;4231450;28;19942;-77
2024/02/15 05:40:17;;;;;;;;;;;;;;;24.30;36.70;101167.97;4214243;28;19920;-78
2024/02/15 05:42:47;;;;;;;;;;;;;;;24.30;37.03;101165.28;4215941;28;19926;-78
2024/02/15 05:44:54;;;;;;;;;;;;;;;24.29;36.79;101164.47;4231259;28;19927;-77
2024/02/15 05:47:03;;;;;;;;;;;;;;;24.30;36.89;101174.19;4231438;28;19927;-78
2024/02/15 05:49:17;;;;;;;;;;;;;;;24.31;36.68;101172.38;4231192;28;19920;-78
2024/02/15 05:51:35;;;;;;;;;;;;;;;24.30;36.87;101167.97;4198522;28;19924;-78
2024/02/15 05:53:54;;;;;;;;;;;;;;;24.30;37.12;101162.59;4213068;28;19959;-78
2024/02/15 05:56:12;;;;;;;;;;;;;;;24.31;36.75;101161.63;4230861;28;19926;-77
2024/02/15 05:58:28;;;;;;;;;;;;;;;24.32;36.88;101163.34;4231379;28;19926;-76
2024/02/15 06:00:49;;;;;;;;;;;;;;;24.31;36.66;101158.94;4213852;28;19975;-77
2024/02/15 06:03:44;;;;;;;;;;;;;;;24.31;36.68;101156.25;4231077;28;19920;-76
2024/02/15 06:06:11;;;;;;;;;;;;;;;24.31;36.62;101156.25;4232274;28;19919;-77
2024/02/15 06:08:31;;;;;;;;;;;;;;;24.31;36.92;101161.63;4218262;28;19920;-77
2024/02/15 06:10:50;;;;;;;;;;;;;;;24.31;36.68;101161.63;4218491;28;19959;-77
2024/02/15 06:13:04;;;;;;;;;;;;;;;24.30;36.74;101163.44;4234127;28;19919;-77
2024/02/15 06:15:15;;;;;;;;;;;;;;;24.31;36.65;101159.78;4234045;28;19923;-77
2024/02/15 06:17:24;;;;;;;;;;;;;;;24.31;36.60;101158.94;4234676;28;20015;-77
2024/02/15 06:19:34;;;;;;;;;;;;;;;24.31;36.58;101150.88;4234685;28;19924;-77
2024/02/15 06:21:44;;;;;;;;;;;;;;;24.32;36.96;101152.59;4234738;28;19966;-77
2024/02/15 06:24:00;;;;;;;;;;;;;;;24.32;36.61;101142.66;4217502;28;19927;-78
2024/02/15 06:26:14;;;;;;;;;;;;;;;24.31;36.57;101138.28;4217694;28;19921;-78
2024/02/15 06:40:50;;;;;;;;;;;;;;;24.30;36.63;101139.25;4234249;28;19931;-78
2024/02/15 06:43:08;;;;;;;;;;;;;;;24.31;36.46;101140.97;4233762;28;19920;-78
2024/02/15 06:45:24;;;;;;;;;;;;;;;24.31;36.54;101142.81;4233759;28;19924;-77
2024/02/15 06:47:35;;;;;;;;;;;;;;;24.30;36.41;101139.25;4216243;28;19920;-78
2024/02/15 06:49:43;;;;;;;;;;;;;;;24.31;36.52;101138.28;4233989;28;19930;-78
2024/02/15 06:51:54;;;;;;;;;;;;;;;24.31;36.61;101138.28;4234096;28;19919;-78
2024/02/15 06:54:06;;;;;;;;;;;;;;;24.32;36.56;101141.84;4217122;28;19955;-78
2024/02/15 06:56:16;;;;;;;;;;;;;;;24.31;36.53;101140.13;4234421;28;19920;-78
2024/02/15 06:58:23;;;;;;;;;;;;;;;24.31;36.51;101142.81;4216138;28;19926;-78
2024/02/15 07:00:35;;;;;;;;;;;;;;;24.29;36.56;101137.56;4217275;28;19920;-77
2024/02/15 07:02:48;;;;;;;;;;;;;;;24.29;36.55;101139.41;4199743;28;19920;-78
2024/02/15 07:04:57;;;;;;;;;;;;;;;24.29;36.50;101140.25;4216263;28;19974;-78
2024/02/15 07:07:06;;;;;;;;;;;;;;;24.29;36.41;101126.81;4216745;28;19963;-77
2024/02/15 07:09:17;;;;;;;;;;;;;;;24.29;36.55;101117.91;4233981;28;20018;-77
2024/02/15 07:11:28;;;;;;;;;;;;;;;24.29;36.74;101121.44;4233411;28;19920;-79
2024/02/15 07:13:43;;;;;;;;;;;;;;;24.29;36.48;101123.28;4233573;28;19975;-78
2024/02/15 07:15:55;;;;;;;;;;;;;;;24.28;36.52;101114.38;4217116;28;19920;-78
2024/02/15 07:18:10;;;;;;;;;;;;;;;24.28;36.52;101109.00;4215878;28;19920;-78
2024/02/15 07:20:32;;;;;;;;;;;;;;;24.28;36.44;101100.94;4217748;28;19920;-78
2024/02/15 07:22:49;;;;;;;;;;;;;;;24.29;36.62;101109.81;4232875;28;19919;-78
2024/02/15 07:25:06;;;;;;;;;;;;;;;24.29;36.47;101109.81;4233661;28;19928;-78
2024/02/15 07:27:30;;;;;;;;;;;;;;;24.30;36.64;101111.53;4199875;28;19920;-78
2024/02/15 07:29:46;;;;;;;;;;;;;;;24.28;36.41;101103.63;4233341;28;19957;-78
2024/02/15 07:32:06;;;;;;;;;;;;;;;24.28;36.43;101110.81;4233224;28;19920;-78
2024/02/15 07:34:22;;;;;;;;;;;;;;;24.28;36.60;101117.06;4215844;28;19920;-78
2024/02/15 07:36:36;;;;;;;;;;;;;;;24.28;36.40;101117.06;4215943;28;20385;-78
2024/02/15 07:38:49;;;;;;;;;;;;;;;24.28;36.79;101118.88;4233254;28;19920;-78
2024/02/15 07:40:59;;;;;;;;;;;;;;;24.26;36.54;101110.94;4233698;28;19995;-78
2024/02/15 07:43:11;;;;;;;;;;;;;;;24.27;36.30;101123.41;4233216;28;19920;-78
2024/02/15 07:45:23;;;;;;;;;;;;;;;24.28;36.53;101124.25;4215332;28;20011;-78
2024/02/15 07:47:31;;;;;;;;;;;;;;;24.28;36.34;101113.50;4215882;28;19927;-78
2024/02/15 07:49:47;;;;;;;;;;;;;;;24.29;36.64;101109.81;4216861;28;19963;-79
2024/02/15 07:51:57;;;;;;;;;;;;;;;24.30;36.45;101106.16;4233621;28;19919;-79
2024/02/15 07:54:20;;;;;;;;;;;;;;;24.29;36.27;101099.94;4232879;28;19959;-78
2024/02/15 07:56:50;;;;;;;;;;;;;;;24.30;36.39;101107.00;4233289;28;19965;-78
2024/02/15 07:59:20;;;;;;;;;;;;;;;24.28;36.33;101095.56;4233134;28;19927;-78
2024/02/15 08:01:51;;;;;;;;;;;;;;;24.27;36.24;101099.22;4217670;28;19920;-78
2024/02/15 08:04:28;;;;;;;;;;;;;;;24.28;36.28;101092.00;4232782;28;19948;-78
2024/02/15 08:06:59;;;;;;;;;;;;;;;24.28;36.41;101089.31;4214704;28;19931;-79
2024/02/15 08:09:23;;;;;;;;;;;;;;;24.26;36.29;101089.44;4231278;28;19998;-78
2024/02/15 08:11:39;;;;;;;;;;;;;;;24.24;36.36;101086.91;4215785;28;19970;-78
2024/02/15 08:13:54;;;;;;;;;;;;;;;24.24;36.29;101083.34;4232673;28;19920;-78
2024/02/15 08:16:05;;;;;;;;;;;;;;;24.24;36.17;101075.28;4232275;28;19924;-79
2024/02/15 08:18:15;;;;;;;;;;;;;;;24.25;36.49;101079.69;4215428;28;19931;-79
2024/02/15 08:20:25;;;;;;;;;;;;;;;24.26;36.19;101077.88;4232597;28;20258;-78
2024/02/15 08:22:44;;;;;;;;;;;;;;;24.27;36.18;101072.34;4216420;28;19931;-78
2024/02/15 08:25:04;;;;;;;;;;;;;;;24.26;36.47;101070.63;4214573;28;20003;-78
2024/02/15 08:27:21;;;;;;;;;;;;;;;24.26;36.16;101061.75;4232366;28;19973;-78
2024/02/15 08:29:43;;;;;;;;;;;;;;;24.24;36.29;101051.09;4233265;28;19973;-78
2024/02/15 08:32:01;;;;;;;;;;;;;;;24.22;36.29;101045.03;4232310;28;19926;-79
2024/02/15 08:34:29;;;;;;;;;;;;;;;24.20;36.31;101050.53;4216753;28;20416;-79
2024/02/15 08:36:58;;;;;;;;;;;;;;;24.16;36.28;101046.41;4200444;28;20003;-79
2024/02/15 08:39:11;;;;;;;;;;;;;;;24.15;36.34;101044.72;4233084;28;19928;-78
2024/02/15 08:41:29;;;;;;;;;;;;;;;24.14;36.28;101037.63;4232203;28;19919;-78
2024/02/15 08:43:41;;;;;;;;;;;;;;;24.15;36.56;101043.88;4231832;28;19962;-78
2024/02/15 08:45:53;;;;;;;;;;;;;;;24.14;36.48;101044.84;4232633;28;19920;-78
2024/02/15 08:48:04;;;;;;;;;;;;;;;24.14;36.26;101042.16;4214627;28;19920;-78
2024/02/15 08:50:23;;;;;;;;;;;;;;;24.12;36.41;101038.75;4214236;28;19924;-78
2024/02/15 08:52:46;;;;;;;;;;;;;;;24.11;36.70;101028.97;4231272;28;19926;-78
2024/02/15 08:55:06;;;;;;;;;;;;;;;24.08;36.32;101024.72;4231975;28;19928;-77
2024/02/15 08:57:14;;;;;;;;;;;;;;;24.06;36.64;101010.59;4232161;28;19924;-78
2024/02/15 08:59:28;;;;;;;;;;;;;;;24.05;36.30;101008.91;4232115;28;19973;-78
2024/02/15 09:01:43;;;;;;;;;;;;;;;24.03;36.73;101005.50;4215296;28;19924;-77
2024/02/15 09:04:01;;;;;;;;;;;;;;;24.00;36.39;101000.38;4198868;28;20401;-78
2024/02/15 09:06:24;;;;;;;;;;;;;;;24.00;36.46;100986.94;4231866;28;19945;-78
2024/02/15 09:08:41;;;;;;;;;;;;;;;23.99;36.40;100991.47;4231900;28;19920;-78
2024/02/15 09:10:53;;;;;;;;;;;;;;;24.00;36.45;100997.69;4198476;28;20011;-78
2024/02/15 09:13:06;;;;;;;;;;;;;;;24.01;36.40;100991.34;4231689;28;19957;-77
2024/02/15 09:15:22;;;;;;;;;;;;;;;24.00;36.52;100993.19;4215078;28;19926;-78
2024/02/15 09:17:45;;;;;;;;;;;;;;;24.01;36.56;101002.94;4231558;28;20068;-78
2024/02/15 09:20:00;;;;;;;;;;;;;;;24.01;36.49;100991.34;4231471;28;19920;-78
2024/02/15 09:22:19;;;;;;;;;;;;;;;24.01;36.74;100986.84;4231871;28;19919;-78
2024/02/15 09:24:36;;;;;;;;;;;;;;;24.02;36.50;101001.09;4214935;28;19995;-78
2024/02/15 09:26:53;;;;;;;;;;;;;;;24.01;36.52;100999.41;4231553;28;20381;-78
2024/02/15 09:29:12;;;;;;;;;;;;;;;24.00;36.70;100992.31;4214959;28;19965;-78
2024/02/15 09:31:25;;;;;;;;;;;;;;;23.99;36.54;100990.66;4230771;28;19923;-78
2024/02/15 09:33:42;;;;;;;;;;;;;;;23.98;36.57;100988.94;4206694;28;19927;-76
2024/02/15 09:35:55;;;;;;;;;;;;;;;23.99;36.51;100987.97;4212874;28;19920;-76
2024/02/15 09:38:06;;;;;;;;;;;;;;;23.99;36.82;100985.28;4213905;28;19920;-77
2024/02/15 09:40:26;;;;;;;;;;;;;;;24.01;36.59;100977.91;4229954;28;19920;-78
2024/02/15 09:42:52;;;;;;;;;;;;;;;24.02;36.93;100983.16;4231088;28;19920;-78
2024/02/15 09:45:45;;;;;;;;;;;;;;;24.04;36.73;100980.34;4230538;28;19920;-78
2024/02/15 09:48:22;;;;;;;;;;;;;;;24.05;36.62;100977.50;4230482;28;19932;-78
2024/02/15 09:50:36;;;;;;;;;;;;;;;24.06;36.55;100973.00;4231144;28;20330;-77
2024/02/15 09:52:57;;;;;;;;;;;;;;;24.06;36.50;100973.00;4231400;28;20296;-78
2024/02/15 09:55:14;;;;;;;;;;;;;;;24.06;36.54;100973.00;4230845;28;19926;-78
2024/02/15 09:57:27;;;;;;;;;;;;;;;24.06;36.82;100962.25;4213701;28;20286;-78
2024/02/15 10:00:02;;;;;;;;;;;;;;;24.06;36.38;100964.94;4231577;28;19947;-77
2024/02/15 10:02:30;;;;;;;;;;;;;;;24.06;36.54;100964.94;4230121;28;19920;-78
2024/02/15 10:04:41;;;;;;;;;;;;;;;24.07;36.61;100954.03;4213303;28;19974;-78
2024/02/15 10:06:56;;;;;;;;;;;;;;;24.09;36.49;100962.78;4230753;28;19963;-77
2024/02/15 10:09:30;;;;;;;;;;;;;;;24.09;36.61;100960.09;4214370;28;19971;-76
2024/02/15 10:11:57;;;;;;;;;;;;;;;24.12;36.41;100960.81;4229591;28;19926;-77
2024/02/15 10:14:21;;;;;;;;;;;;;;;24.09;36.49;100957.41;4213987;28;19920;-76
2024/02/15 10:16:47;;;;;;;;;;;;;;;24.06;36.52;100954.19;4230899;28;20332;-76
2024/02/15 10:19:08;;;;;;;;;;;;;;;24.06;36.62;100948.81;4197070;28;19925;-76
2024/02/15 10:21:33;;;;;;;;;;;;;;;24.04;36.60;100940.88;4213891;28;20010;-76
2024/02/15 10:23:44;;;;;;;;;;;;;;;24.03;36.47;100946.38;4213461;28;19927;-77
2024/02/15 10:26:02;;;;;;;;;;;;;;;24.03;36.55;100933.78;4214214;28;19920;-74
2024/02/15 10:28:15;;;;;;;;;;;;;;;24.01;36.14;100933.09;4213218;28;20407;-73
2024/02/15 10:30:45;;;;;;;;;;;;;;;23.99;36.23;100923.47;4214229;28;19930;-77
2024/02/15 10:33:29;;;;;;;;;;;;;;;23.97;36.22;100923.59;4230567;28;19919;-77
2024/02/15 10:35:49;;;;;;;;;;;;;;;23.98;36.08;100921.78;4230402;28;19926;-76
2024/02/15 10:38:08;;;;;;;;;;;;;;;23.97;36.27;100922.75;4231084;28;19920;-78
2024/02/15 10:40:35;;;;;;;;;;;;;;;23.99;36.40;100918.94;4231480;28;20011;-79
2024/02/15 10:42:56;;;;;;;;;;;;;;;23.99;36.52;100923.47;4197094;28;19927;-78
2024/02/15 10:45:11;;;;;;;;;;;;;;;23.98;36.61;100911.88;4214757;28;19926;-77
2024/02/15 10:47:22;;;;;;;;;;;;;;;23.98;36.42;100906.50;4230634;28;19920;-79
2024/02/15 10:49:37;;;;;;;;;;;;;;;23.99;36.47;100904.69;4230946;28;19927;-78
2024/02/15 10:52:04;;;;;;;;;;;;;;;23.81;36.61;100877.59;4212882;28;20049;-78
2024/02/15 10:54:31;;;;;;;;;;;;;;;23.97;36.37;100895.91;4233623;28;19966;-78
2024/02/15 10:56:47;;;;;;;;;;;;;;;23.95;36.60;100896.03;4233948;28;20233;-78
2024/02/15 10:59:10;;;;;;;;;;;;;;;23.96;36.23;100894.19;4233862;28;20006;-76
2024/02/15 11:01:22;;;;;;;;;;;;;;;23.95;36.20;100881.75;4215488;28;19924;-77
2024/02/15 11:03:41;;;;;;;;;;;;;;;23.95;36.04;100871.88;4233827;28;19919;-77
2024/02/15 11:05:57;;;;;;;;;;;;;;;23.95;36.38;100871.88;4217188;28;20435;-78
2024/02/15 11:08:16;;;;;;;;;;;;;;;23.96;36.35;100870.84;4217042;28;19920;-78
2024/02/15 11:10:30;;;;;;;;;;;;;;;23.96;35.88;100870.00;4225665;28;19972;-78
2024/02/15 11:12:44;;;;;;;;;;;;;;;23.97;36.11;100864.50;4215937;28;19926;-78
2024/02/15 11:15:03;;;;;;;;;;;;;;;23.97;35.97;100852.91;4217297;28;19965;-78
2024/02/15 11:17:43;;;;;;;;;;;;;;;23.94;36.23;100862.09;4234315;28;19919;-79
2024/02/15 11:20:10;;;;;;;;;;;;;;;23.95;35.91;100849.50;4233382;28;19924;-78
2024/02/15 11:22:19;;;;;;;;;;;;;;;23.95;36.37;100841.44;4233571;28;19920;-79
2024/02/15 11:24:36;;;;;;;;;;;;;;;23.93;36.33;100833.53;4199947;28;19924;-78
2024/02/15 11:26:51;;;;;;;;;;;;;;;23.91;36.57;100836.34;4233428;28;19920;-75
2024/02/15 11:29:44;;;;;;;;;;;;;;;23.93;36.28;100836.22;4233230;28;19927;-77
2024/02/15 11:31:57;;;;;;;;;;;;;;;23.91;36.37;100840.84;4211048;28;19920;-79
2024/02/15 11:34:24;;;;;;;;;;;;;;;23.91;36.23;100833.66;4233432;28;19930;-78
2024/02/15 11:36:38;;;;;;;;;;;;;;;23.91;36.15;100828.28;4233007;28;19919;-78
2024/02/15 11:38:47;;;;;;;;;;;;;;;23.91;36.24;100828.28;4233247;28;19945;-79
2024/02/15 11:41:10;;;;;;;;;;;;;;;23.91;36.20;100822.91;4216572;28;20289;-77
2024/02/15 11:43:49;;;;;;;;;;;;;;;23.92;36.41;100826.44;4216696;28;19919;-77
2024/02/15 11:46:18;;;;;;;;;;;;;;;23.93;36.06;100814.72;4218007;28;19920;-77
2024/02/15 11:48:42;;;;;;;;;;;;;;;23.92;36.04;100816.56;4233091;28;20400;-74
2024/02/15 11:50:59;;;;;;;;;;;;;;;23.93;36.06;100812.88;4232830;28;19973;-74
2024/02/15 11:53:18;;;;;;;;;;;;;;;23.92;36.35;100810.31;4233318;28;19961;-76
2024/02/15 11:55:35;;;;;;;;;;;;;;;23.92;36.64;100804.94;4232706;28;20242;-76